< < Back
Terminal Aerodrome Forecast


Current Version              Previous Versions:   1  2  3  4  5  6  7  8  9  

Terminal Aerodrome Forecast

354
FTUS42 KCHS 292300
TAFSAV
TAF
KSAV 292326Z 3000/3024 VRB03KT P6SM SKC=

Latest METAR

101
SAUS80 KWBC 300100 RRA
MTRSAV
METAR KSAV 300053Z 02003KT 10SM SCT090 SCT250 27/16 A2993 RMK AO2 SLP135
T02720161


USA.gov is the U.S. government's official web portal to all federal, state and local government web resources and services.